Terminal Aerodrome Forecast
Issued by NWS

Home | Current Version | Previous Version | Text Only | Print | Product List | Glossary Off
Versions: 1 2 3 4 5 6 7 8 9 10 11 12

432
FTUS43 KIWX 261734 AAB
TAFSBN
TAF AMD
KSBN 261734Z 2618/2718 18016G27KT P6SM BKN040
     FM262300 17013KT P6SM VCTS BKN040CB
     FM270800 19013G23KT P6SM -SHRA BKN020
     FM271500 22015G25KT P6SM -SHRA BKN020=

USA.gov is the U.S. government's official web portal to all federal, state and local government web resources and services.